Terminal Aerodrome Forecast
Issued by NWS Newport/Morehead City, NC

Home | Current Version | Previous Version | Text Only | Print | Product List | Glossary On
Versions: 1 2 3 4 5 6 7 8 9 10 11 12 13 14 15 16 17 18
000
FTUS42 KMHX 290355 AAC
TAFEWN
TAF AMD
KEWN 290355Z 2904/2924 00000KT 1/4SM FG VV002
     FM291300 36006KT 3SM BR BKN005
     FM291500 03008KT P6SM SCT200=

USA.gov is the U.S. government's official web portal to all federal, state and local government web resources and services.